Weather observations for the past three days for
Hastings, Hastings Municipal Airport
Metric (Imperial)
Date Time (cdt) Wind (kph) Vis. (km) Weather Sky Cond. Temperature (ºC) Relative Humidity Wind Chill (°C) Heat Index (°C) Pressure Precipitation (cm)
Air Dwpt 6 hour altimeter (cm) sea level (mb) 1 hr 3 hr 6 hr
Max. Min.
04 20:53 NE 44 G 63 16.09 Fair and Windy CLR 16.1 1.1 36% 75.57 1006.7
04 19:53 NE 28 16.09 Fair CLR 18.3 1.7 33% 75.44 1005.3
04 18:53 N 39 G 54 16.09 Mostly Cloudy and Breezy BKN110 20.6 2.8 26.7 20.6 31% 75.39 1004.8
04 17:53 N 35 G 48 16.09 Fair and Breezy CLR 21.1 2.2 29% 75.39 1004.3
04 16:53 N 31 G 46 16.09 Fair CLR 22.2 2.8 28% 75.34 1003.7
04 15:53 NE 31 G 44 16.09 Fair CLR 23.3 5.6 32% 75.34 1003.2
04 14:53 N 28 G 48 16.09 Fair CLR 24.4 6.1 31% 25 75.31 1002.9
04 13:53 N 22 G 39 16.09 Fair CLR 26.1 5.6 27% 26 75.31 1002.5
04 12:53 N 20 G 39 16.09 Fair CLR 26.1 2.2 26.7 7.8 21% 26 75.29 1002.2
04 11:53 NW 24 G 46 16.09 Fair CLR 25.6 2.2 22% 25 75.31 1002.7
04 10:53 NW 22 16.09 Fair CLR 23.3 4.4 29% 75.34 1002.9
04 09:53 W 15 16.09 Fair CLR 20 4.4 36% 75.36 1003.7
04 08:53 NW 15 16.09 Fair CLR 16.1 5 48% 75.39 1004.0
04 07:53 NW 19 16.09 Fair CLR 11.7 3.9 59% 75.36 1004.0
04 06:53 NW 9 16.09 Fair CLR 7.2 2.8 15.6 7.2 74% 6 75.31 1003.4
04 05:53 NW 7 16.09 Fair CLR 8.3 2.2 66% 7 75.29 1003.0
04 04:53 Calm 16.09 Fair CLR 10 2.8 61% 75.31 1003.1
04 03:53 S 6 16.09 Fair CLR 13.3 2.2 47% 75.31 1002.9
04 02:53 S 13 16.09 Fair CLR 15 2.2 42% 75.36 1003.5
04 01:53 S 11 16.09 Fair CLR 15 1.7 41% 75.46 1004.9
04 00:53 SE 11 16.09 Fair CLR 15.6 1.1 22.2 15 38% 75.54 1005.7
03 23:53 SE 13 16.09 Fair CLR 16.7 1.1 35% 75.57 1006.4
03 22:53 E 13 16.09 Fair CLR 16.7 1.7 37% 75.62 1007.0
03 21:53 E 9 16.09 Fair CLR 16.7 3.3 41% 75.64 1007.7
03 20:53 NE 11 16.09 Fair CLR 16.7 5 46% 75.64 1007.6
03 19:53 NE 9 16.09 Fair CLR 19.4 5 39% 75.64 1007.9
03 18:53 NE 13 16.09 Fair CLR 22.2 3.3 23.9 21.7 29% 75.69 1008.7
03 17:53 E 13 16.09 Fair CLR 23.3 3.3 27% 75.72 1008.8
03 16:53 N 7 16.09 Fair CLR 23.9 2.2 24% 25 75.77 1009.1
03 15:53 NE 7 16.09 Fair CLR 23.9 2.8 25% 25 75.82 1009.9
03 14:53 N 11 G 26 16.09 Fair CLR 23.3 2.2 25% 75.87 1010.7
03 13:53 N 13 16.09 Fair CLR 22.8 2.2 26% 75.92 1011.3
03 12:53 N 11 G 26 16.09 Fair CLR 23.3 3.3 23.3 6.7 27% 75.97 1012.0
03 11:53 N 15 16.09 Fair CLR 20.6 2.8 31% 76.05 1012.9
03 10:53 N 17 16.09 Fair CLR 19.4 2.8 33% 76.05 1013.2
03 09:53 N 15 16.09 Fair CLR 17.2 2.8 38% 76.05 1013.2
03 08:53 N 17 16.09 Fair CLR 15.6 3.3 44% 76.02 1012.6
03 07:53 NW 17 16.09 Fair CLR 11.1 2.2 55% 75.97 1012.2
03 06:53 W 7 16.09 Fair CLR 6.7 1.1 12.2 6.7 68% 6 75.95 1012.3
03 05:53 SW 11 16.09 Fair CLR 8.3 1.7 63% 7 75.9 1011.4
03 04:53 SW 19 G 31 16.09 Fair CLR 11.7 1.1 48% 75.9 1011.0
03 03:53 SW 19 16.09 Fair CLR 11.1 0 47% 75.9 1011.3
03 02:53 S 17 16.09 Fair CLR 11.7 -0.6 43% 75.95 1012.0
03 01:53 S 20 16.09 Fair CLR 11.7 -0.6 43% 76 1012.8
03 00:53 S 17 16.09 Fair CLR 12.2 0 20.6 12.2 43% 76.02 1013.1
02 23:53 S 17 16.09 Fair CLR 12.8 0 42% 76.05 1013.4
02 22:53 S 17 16.09 Fair CLR 13.3 0 40% 76.07 1013.9
02 21:53 S 11 16.09 Fair CLR 15 -0.6 35% 76.1 1014.2
02 20:53 S 11 16.09 Fair CLR 16.7 -0.6 31% 76.1 1014.4
02 19:53 SW 11 16.09 Fair CLR 20 -1.1 24% 76.12 1014.8
02 18:53 W 19 16.09 Fair CLR 20.6 -1.7 21.1 16.1 22% 76.17 1015.5
02 17:53 SW 15 G 31 16.09 Fair CLR 21.1 -2.2 21% 76.23 1016.1
02 16:53 W 17 G 30 16.09 Fair CLR 20.6 -3.3 20% 76.28 1017.0
02 15:53 W 17 G 33 16.09 Fair CLR 19.4 -5 19% 76.35 1018.2
02 14:53 Calm 16.09 Fair CLR 18.3 -5 20% 76.43 1019.1
02 13:53 W 19 G 28 16.09 Fair CLR 17.8 -3.9 23% 76.48 1019.9
02 12:53 W 11 16.09 Fair CLR 16.1 -3.3 16.7 1.1 26% 76.56 1021.0
02 11:53 W 13 G 26 16.09 Fair CLR 15 -3.3 28% 76.63 1021.9
02 10:53 Vrbl 6 16.09 Fair CLR 13.9 -3.3 30% 76.66 1022.3
02 09:53 W 15 16.09 Fair CLR 12.2 -1.7 38% 76.68 1022.6
02 08:53 SW 9 16.09 Fair CLR 8.9 -0.6 52% 8 76.68 1022.8
02 07:53 W 7 16.09 Fair CLR 3.9 -2.2 65% 2 76.68 1022.8
02 06:53 SW 7 16.09 Fair CLR 1.7 -3.3 4.4 0.6 70% -0 76.66 1022.5
02 05:53 SW 9 16.09 Fair CLR 1.7 -2.8 72% -1 76.66 1022.4
02 04:53 W 7 16.09 Fair CLR 1.7 -1.7 78% -0 76.66 1022.5
02 03:53 Calm 16.09 Fair CLR 1.1 -2.8 76% 76.66 1022.6
02 02:53 W 6 16.09 Fair CLR 2.8 -1.7 73% 76.66 1022.4
02 01:53 Calm 16.09 Fair CLR 2.8 -2.8 67% 76.68 1022.8
02 00:53 NE 6 16.09 Fair CLR 3.9 -2.2 14.4 3.3 65% 76.66 1022.3
01 23:53 NE 6 16.09 Fair CLR 5 -2.2 60% 76.61 1021.8
01 22:53 NE 7 16.09 Fair CLR 6.7 -2.2 53% 6 76.58 1021.5
01 21:53 NE 7 16.09 Fair CLR 7.2 -1.1 56% 6 76.53 1020.9
Date Time (cdt) Wind (kph) Vis. (km) Weather Sky Cond. Air Dwpt Max. Min. Relative Humidity Wind Chill (°C) Heat Index (°C) altimeter (cm) sea level (mb) 1 hr 3 hr 6 hr
6 hour
Temperature (ºC) Pressure Precipitation (cm)